sensor_id;sensor_type;location;lat;lon;timestamp;pressure;altitude;pressure_sealevel;temperature;humidity
9187;BME280;7273;48.902;9.410;2023-03-13T00:01:24;97570.63;;;9.29;67.49
9187;BME280;7273;48.902;9.410;2023-03-13T00:03:49;97567.44;;;9.22;67.81
9187;BME280;7273;48.902;9.410;2023-03-13T00:06:15;97577.41;;;9.22;68.18
9187;BME280;7273;48.902;9.410;2023-03-13T00:08:41;97578.25;;;9.17;68.12
9187;BME280;7273;48.902;9.410;2023-03-13T00:11:09;97571.50;;;9.15;67.69
9187;BME280;7273;48.902;9.410;2023-03-13T00:13:35;97567.50;;;9.12;67.83
9187;BME280;7273;48.902;9.410;2023-03-13T00:16:02;97574.53;;;9.08;67.76
9187;BME280;7273;48.902;9.410;2023-03-13T00:18:28;97569.69;;;9.05;67.97
9187;BME280;7273;48.902;9.410;2023-03-13T00:21:07;97572.66;;;9.04;68.01
9187;BME280;7273;48.902;9.410;2023-03-13T00:23:35;97564.84;;;9.02;68.32
9187;BME280;7273;48.902;9.410;2023-03-13T00:26:03;97565.97;;;9.01;68.19
9187;BME280;7273;48.902;9.410;2023-03-13T00:28:30;97561.09;;;9.03;68.27
9187;BME280;7273;48.902;9.410;2023-03-13T00:31:13;97557.88;;;9.01;68.24
9187;BME280;7273;48.902;9.410;2023-03-13T00:33:41;97558.44;;;8.98;68.22
9187;BME280;7273;48.902;9.410;2023-03-13T00:36:19;97549.78;;;9.01;67.99
9187;BME280;7273;48.902;9.410;2023-03-13T00:38:45;97547.88;;;9.02;67.98
9187;BME280;7273;48.902;9.410;2023-03-13T00:41:17;97547.63;;;9.03;68.16
9187;BME280;7273;48.902;9.410;2023-03-13T00:43:44;97548.41;;;9.04;68.01
9187;BME280;7273;48.902;9.410;2023-03-13T00:46:11;97550.81;;;9.05;68.12
9187;BME280;7273;48.902;9.410;2023-03-13T00:48:36;97544.06;;;9.08;68.05
9187;BME280;7273;48.902;9.410;2023-03-13T00:51:03;97541.09;;;9.09;68.13
9187;BME280;7273;48.902;9.410;2023-03-13T00:53:29;97535.69;;;9.09;67.88
9187;BME280;7273;48.902;9.410;2023-03-13T00:55:58;97529.50;;;9.09;68.19
9187;BME280;7273;48.902;9.410;2023-03-13T00:58:26;97525.72;;;9.10;67.81
9187;BME280;7273;48.902;9.410;2023-03-13T01:00:52;97523.03;;;9.10;67.96
9187;BME280;7273;48.902;9.410;2023-03-13T01:03:18;97517.88;;;9.08;67.83
9187;BME280;7273;48.902;9.410;2023-03-13T01:05:44;97524.66;;;9.06;67.92
9187;BME280;7273;48.902;9.410;2023-03-13T01:08:10;97511.69;;;9.08;68.19
9187;BME280;7273;48.902;9.410;2023-03-13T01:10:36;97499.53;;;9.10;68.12
9187;BME280;7273;48.902;9.410;2023-03-13T01:13:01;97500.63;;;9.09;68.20
9187;BME280;7273;48.902;9.410;2023-03-13T01:15:29;97500.91;;;9.08;68.30
9187;BME280;7273;48.902;9.410;2023-03-13T01:17:55;97489.31;;;9.07;67.92
9187;BME280;7273;48.902;9.410;2023-03-13T01:20:20;97496.31;;;9.08;68.25
9187;BME280;7273;48.902;9.410;2023-03-13T01:22:46;97485.53;;;9.08;68.37
9187;BME280;7273;48.902;9.410;2023-03-13T01:25:11;97482.03;;;9.08;68.04
9187;BME280;7273;48.902;9.410;2023-03-13T01:27:36;97479.34;;;9.08;68.04
9187;BME280;7273;48.902;9.410;2023-03-13T01:30:02;97472.03;;;9.08;68.46
9187;BME280;7273;48.902;9.410;2023-03-13T01:32:28;97464.47;;;9.10;68.52
9187;BME280;7273;48.902;9.410;2023-03-13T01:34:53;97460.72;;;9.11;68.12
9187;BME280;7273;48.902;9.410;2023-03-13T01:37:18;97460.91;;;9.15;68.37
9187;BME280;7273;48.902;9.410;2023-03-13T01:39:44;97457.16;;;9.16;68.26
9187;BME280;7273;48.902;9.410;2023-03-13T01:42:09;97451.47;;;9.17;68.24
9187;BME280;7273;48.902;9.410;2023-03-13T01:44:55;97447.41;;;9.20;67.95
9187;BME280;7273;48.902;9.410;2023-03-13T01:47:21;97441.50;;;9.18;67.83
9187;BME280;7273;48.902;9.410;2023-03-13T01:49:48;97437.72;;;9.19;67.62
9187;BME280;7273;48.902;9.410;2023-03-13T01:52:16;97428.50;;;9.20;67.72
9187;BME280;7273;48.902;9.410;2023-03-13T01:54:44;97423.94;;;9.20;67.94
9187;BME280;7273;48.902;9.410;2023-03-13T01:57:26;97421.25;;;9.20;67.94
9187;BME280;7273;48.902;9.410;2023-03-13T02:00:01;97421.75;;;9.22;67.58
9187;BME280;7273;48.902;9.410;2023-03-13T02:02:27;97415.28;;;9.23;67.79
9187;BME280;7273;48.902;9.410;2023-03-13T02:04:57;97421.19;;;9.25;67.53
9187;BME280;7273;48.902;9.410;2023-03-13T02:07:31;97419.56;;;9.29;67.53
9187;BME280;7273;48.902;9.410;2023-03-13T02:09:58;97415.47;;;9.32;67.41
9187;BME280;7273;48.902;9.410;2023-03-13T02:12:36;97409.50;;;9.35;67.35
9187;BME280;7273;48.902;9.410;2023-03-13T02:15:06;97406.50;;;9.36;67.56
9187;BME280;7273;48.902;9.410;2023-03-13T02:17:33;97399.75;;;9.39;67.39
9187;BME280;7273;48.902;9.410;2023-03-13T02:20:00;97392.97;;;9.41;67.53
9187;BME280;7273;48.902;9.410;2023-03-13T02:27:25;97392.88;;;9.51;67.21
9187;BME280;7273;48.902;9.410;2023-03-13T02:29:50;97393.69;;;9.52;67.55
9187;BME280;7273;48.902;9.410;2023-03-13T02:32:17;97391.22;;;9.56;67.26
9187;BME280;7273;48.902;9.410;2023-03-13T02:34:43;97392.53;;;9.58;67.22
9187;BME280;7273;48.902;9.410;2023-03-13T02:37:11;97389.53;;;9.60;67.18
9187;BME280;7273;48.902;9.410;2023-03-13T02:39:42;97390.06;;;9.62;67.38
9187;BME280;7273;48.902;9.410;2023-03-13T02:42:11;97390.00;;;9.67;66.93
9187;BME280;7273;48.902;9.410;2023-03-13T02:44:40;97378.06;;;9.73;67.01
9187;BME280;7273;48.902;9.410;2023-03-13T02:47:06;97364.28;;;9.74;66.85
9187;BME280;7273;48.902;9.410;2023-03-13T02:49:34;97357.22;;;9.78;66.96
9187;BME280;7273;48.902;9.410;2023-03-13T02:52:10;97358.81;;;9.79;66.97
9187;BME280;7273;48.902;9.410;2023-03-13T02:54:38;97348.25;;;9.83;67.30
9187;BME280;7273;48.902;9.410;2023-03-13T02:57:04;97334.97;;;9.86;66.91
9187;BME280;7273;48.902;9.410;2023-03-13T02:59:30;97337.38;;;9.88;67.20
9187;BME280;7273;48.902;9.410;2023-03-13T03:01:56;97334.91;;;9.91;67.26
9187;BME280;7273;48.902;9.410;2023-03-13T03:04:23;97327.03;;;9.95;67.02
9187;BME280;7273;48.902;9.410;2023-03-13T03:06:49;97321.03;;;9.98;66.73
9187;BME280;7273;48.902;9.410;2023-03-13T03:09:16;97319.34;;;10.02;67.02
9187;BME280;7273;48.902;9.410;2023-03-13T03:11:42;97314.19;;;10.05;67.19
9187;BME280;7273;48.902;9.410;2023-03-13T03:14:09;97304.19;;;10.06;67.21
9187;BME280;7273;48.902;9.410;2023-03-13T03:16:34;97299.34;;;10.08;67.19
9187;BME280;7273;48.902;9.410;2023-03-13T03:19:00;97294.16;;;10.11;67.25
9187;BME280;7273;48.902;9.410;2023-03-13T03:21:25;97288.47;;;10.13;67.39
9187;BME280;7273;48.902;9.410;2023-03-13T03:23:51;97293.06;;;10.12;67.06
9187;BME280;7273;48.902;9.410;2023-03-13T03:26:17;97300.03;;;10.13;67.51
9187;BME280;7273;48.902;9.410;2023-03-13T03:28:42;97298.97;;;10.14;67.48
9187;BME280;7273;48.902;9.410;2023-03-13T03:31:10;97293.28;;;10.16;67.68
9187;BME280;7273;48.902;9.410;2023-03-13T03:33:36;97296.56;;;10.13;67.66
9187;BME280;7273;48.902;9.410;2023-03-13T03:36:07;97291.66;;;10.15;67.76
9187;BME280;7273;48.902;9.410;2023-03-13T03:38:33;97292.22;;;10.12;67.92
9187;BME280;7273;48.902;9.410;2023-03-13T03:40:59;97287.69;;;10.07;68.08
9187;BME280;7273;48.902;9.410;2023-03-13T03:43:24;97290.69;;;10.06;68.50
9187;BME280;7273;48.902;9.410;2023-03-13T03:45:50;97283.47;;;10.01;68.83
9187;BME280;7273;48.902;9.410;2023-03-13T03:48:16;97285.47;;;9.91;68.88
9187;BME280;7273;48.902;9.410;2023-03-13T03:50:42;97283.38;;;9.88;68.91
9187;BME280;7273;48.902;9.410;2023-03-13T03:53:07;97281.47;;;9.88;69.06
9187;BME280;7273;48.902;9.410;2023-03-13T03:55:33;97286.66;;;9.85;69.08
9187;BME280;7273;48.902;9.410;2023-03-13T03:57:59;97278.56;;;9.85;69.16
9187;BME280;7273;48.902;9.410;2023-03-13T04:00:25;97273.75;;;9.82;69.13
9187;BME280;7273;48.902;9.410;2023-03-13T04:02:52;97279.72;;;9.79;69.19
9187;BME280;7273;48.902;9.410;2023-03-13T04:05:17;97281.31;;;9.80;69.27
9187;BME280;7273;48.902;9.410;2023-03-13T04:07:43;97272.94;;;9.81;69.41
9187;BME280;7273;48.902;9.410;2023-03-13T04:10:08;97269.72;;;9.79;69.54
9187;BME280;7273;48.902;9.410;2023-03-13T04:12:34;97273.22;;;9.80;69.33
9187;BME280;7273;48.902;9.410;2023-03-13T04:14:59;97272.63;;;9.83;69.52
9187;BME280;7273;48.902;9.410;2023-03-13T04:17:25;97271.25;;;9.85;69.52
9187;BME280;7273;48.902;9.410;2023-03-13T04:19:51;97259.66;;;9.85;69.43
9187;BME280;7273;48.902;9.410;2023-03-13T04:22:16;97251.47;;;9.90;70.42
9187;BME280;7273;48.902;9.410;2023-03-13T04:24:41;97252.00;;;9.92;69.49
9187;BME280;7273;48.902;9.410;2023-03-13T04:27:07;97246.78;;;9.95;69.65
9187;BME280;7273;48.902;9.410;2023-03-13T04:29:33;97240.75;;;10.03;69.82
9187;BME280;7273;48.902;9.410;2023-03-13T04:31:58;97227.91;;;10.14;70.87
9187;BME280;7273;48.902;9.410;2023-03-13T04:34:23;97238.06;;;10.22;70.64
9187;BME280;7273;48.902;9.410;2023-03-13T04:36:49;97231.19;;;10.29;69.85
9187;BME280;7273;48.902;9.410;2023-03-13T04:39:14;97231.31;;;10.38;70.29
9187;BME280;7273;48.902;9.410;2023-03-13T04:41:40;97234.47;;;10.58;72.71
9187;BME280;7273;48.902;9.410;2023-03-13T04:44:05;97236.50;;;10.66;71.17
9187;BME280;7273;48.902;9.410;2023-03-13T04:46:31;97235.22;;;10.77;71.28
9187;BME280;7273;48.902;9.410;2023-03-13T04:48:56;97232.34;;;10.88;72.37
9187;BME280;7273;48.902;9.410;2023-03-13T04:51:22;97228.34;;;10.99;71.89
9187;BME280;7273;48.902;9.410;2023-03-13T04:53:47;97231.25;;;11.16;74.03
9187;BME280;7273;48.902;9.410;2023-03-13T04:56:21;97231.16;;;11.21;71.18
9187;BME280;7273;48.902;9.410;2023-03-13T04:58:46;97229.66;;;11.28;71.82
9187;BME280;7273;48.902;9.410;2023-03-13T05:01:12;97227.84;;;11.37;73.08
9187;BME280;7273;48.902;9.410;2023-03-13T05:03:37;97227.94;;;11.46;73.27
9187;BME280;7273;48.902;9.410;2023-03-13T05:06:03;97228.63;;;11.51;73.76
9187;BME280;7273;48.902;9.410;2023-03-13T05:08:28;97222.59;;;11.54;72.60
9187;BME280;7273;48.902;9.410;2023-03-13T05:10:53;97226.63;;;11.57;71.85
9187;BME280;7273;48.902;9.410;2023-03-13T05:13:19;97217.59;;;11.61;70.93
9187;BME280;7273;48.902;9.410;2023-03-13T05:15:44;97220.53;;;11.65;71.63
9187;BME280;7273;48.902;9.410;2023-03-13T05:18:09;97222.13;;;11.66;71.41
9187;BME280;7273;48.902;9.410;2023-03-13T05:20:35;97216.41;;;11.67;72.50
9187;BME280;7273;48.902;9.410;2023-03-13T05:23:00;97217.22;;;11.68;72.97
9187;BME280;7273;48.902;9.410;2023-03-13T05:25:26;97226.63;;;11.70;72.32
9187;BME280;7273;48.902;9.410;2023-03-13T05:27:51;97212.59;;;11.68;73.01
9187;BME280;7273;48.902;9.410;2023-03-13T05:30:16;97216.59;;;11.71;72.61
9187;BME280;7273;48.902;9.410;2023-03-13T05:32:44;97216.81;;;11.74;72.68
9187;BME280;7273;48.902;9.410;2023-03-13T05:35:09;97222.72;;;11.76;72.29
9187;BME280;7273;48.902;9.410;2023-03-13T05:37:34;97219.19;;;11.76;71.74
9187;BME280;7273;48.902;9.410;2023-03-13T05:40:00;97225.13;;;11.78;74.50
9187;BME280;7273;48.902;9.410;2023-03-13T05:42:25;97214.78;;;11.80;72.33
9187;BME280;7273;48.902;9.410;2023-03-13T05:44:51;97212.56;;;11.82;71.90
9187;BME280;7273;48.902;9.410;2023-03-13T05:47:16;97211.16;;;11.84;72.01
9187;BME280;7273;48.902;9.410;2023-03-13T05:49:42;97214.38;;;11.86;71.60
9187;BME280;7273;48.902;9.410;2023-03-13T05:52:08;97215.16;;;11.87;71.81
9187;BME280;7273;48.902;9.410;2023-03-13T05:54:33;97215.97;;;11.87;72.84
9187;BME280;7273;48.902;9.410;2023-03-13T05:56:59;97224.09;;;11.87;73.48
9187;BME280;7273;48.902;9.410;2023-03-13T05:59:24;97213.66;;;11.81;75.40
9187;BME280;7273;48.902;9.410;2023-03-13T06:01:49;97208.78;;;11.69;74.80
9187;BME280;7273;48.902;9.410;2023-03-13T06:04:15;97209.69;;;11.65;74.07
9187;BME280;7273;48.902;9.410;2023-03-13T06:06:40;97213.00;;;11.62;74.80
9187;BME280;7273;48.902;9.410;2023-03-13T06:09:06;97200.22;;;11.62;77.26
9187;BME280;7273;48.902;9.410;2023-03-13T06:11:32;97202.94;;;11.62;73.71
9187;BME280;7273;48.902;9.410;2023-03-13T06:13:57;97205.06;;;11.65;73.43
9187;BME280;7273;48.902;9.410;2023-03-13T06:16:22;97210.06;;;11.72;75.83
9187;BME280;7273;48.902;9.410;2023-03-13T06:18:48;97207.56;;;11.75;73.96
9187;BME280;7273;48.902;9.410;2023-03-13T06:21:13;97218.59;;;11.79;74.51
9187;BME280;7273;48.902;9.410;2023-03-13T06:23:38;97209.84;;;11.82;74.66
9187;BME280;7273;48.902;9.410;2023-03-13T06:26:04;97217.09;;;11.86;72.92
9187;BME280;7273;48.902;9.410;2023-03-13T06:28:29;97212.44;;;11.87;73.55
9187;BME280;7273;48.902;9.410;2023-03-13T06:31:03;97220.75;;;11.90;72.38
9187;BME280;7273;48.902;9.410;2023-03-13T06:33:29;97215.53;;;11.94;72.46
9187;BME280;7273;48.902;9.410;2023-03-13T06:35:55;97211.41;;;11.96;74.76
9187;BME280;7273;48.902;9.410;2023-03-13T06:38:21;97202.69;;;11.99;72.50
9187;BME280;7273;48.902;9.410;2023-03-13T06:40:46;97203.97;;;12.02;72.63
9187;BME280;7273;48.902;9.410;2023-03-13T06:43:12;97205.44;;;12.08;71.71
9187;BME280;7273;48.902;9.410;2023-03-13T06:45:37;97200.53;;;12.10;71.99
9187;BME280;7273;48.902;9.410;2023-03-13T06:48:03;97206.94;;;12.14;72.60
9187;BME280;7273;48.902;9.410;2023-03-13T06:50:29;97218.44;;;12.19;71.99
9187;BME280;7273;48.902;9.410;2023-03-13T06:52:55;97210.31;;;12.19;71.62
9187;BME280;7273;48.902;9.410;2023-03-13T06:55:22;97219.47;;;12.24;73.43
9187;BME280;7273;48.902;9.410;2023-03-13T06:57:51;97217.25;;;12.26;71.14
9187;BME280;7273;48.902;9.410;2023-03-13T07:00:18;97214.53;;;12.26;72.49
9187;BME280;7273;48.902;9.410;2023-03-13T07:02:43;97218.53;;;12.28;71.38
9187;BME280;7273;48.902;9.410;2023-03-13T07:05:09;97216.63;;;12.29;72.43
9187;BME280;7273;48.902;9.410;2023-03-13T07:07:34;97219.84;;;12.31;72.32
9187;BME280;7273;48.902;9.410;2023-03-13T07:10:00;97226.22;;;12.35;72.08
9187;BME280;7273;48.902;9.410;2023-03-13T07:12:25;97222.44;;;12.36;73.13
9187;BME280;7273;48.902;9.410;2023-03-13T07:14:51;97231.84;;;12.38;71.71
9187;BME280;7273;48.902;9.410;2023-03-13T07:17:16;97238.53;;;12.41;72.61
9187;BME280;7273;48.902;9.410;2023-03-13T07:19:41;97241.25;;;12.41;71.74
9187;BME280;7273;48.902;9.410;2023-03-13T07:22:07;97251.50;;;12.44;71.98
9187;BME280;7273;48.902;9.410;2023-03-13T07:24:32;97245.78;;;12.45;72.30
9187;BME280;7273;48.902;9.410;2023-03-13T07:26:57;97245.16;;;12.48;71.71
9187;BME280;7273;48.902;9.410;2023-03-13T07:29:23;97239.72;;;12.48;71.63
9187;BME280;7273;48.902;9.410;2023-03-13T07:31:49;97244.84;;;12.50;71.46
9187;BME280;7273;48.902;9.410;2023-03-13T07:34:14;97232.41;;;12.49;71.35
9187;BME280;7273;48.902;9.410;2023-03-13T07:36:40;97226.56;;;12.55;71.50
9187;BME280;7273;48.902;9.410;2023-03-13T07:39:06;97230.66;;;12.53;73.07
9187;BME280;7273;48.902;9.410;2023-03-13T07:41:31;97222.41;;;12.58;71.94
9187;BME280;7273;48.902;9.410;2023-03-13T07:43:57;97220.50;;;12.58;71.77
9187;BME280;7273;48.902;9.410;2023-03-13T07:46:22;97218.28;;;12.60;71.03
9187;BME280;7273;48.902;9.410;2023-03-13T07:48:48;97207.13;;;12.62;71.46
9187;BME280;7273;48.902;9.410;2023-03-13T07:51:16;97200.88;;;12.61;71.55
9187;BME280;7273;48.902;9.410;2023-03-13T07:53:45;97203.78;;;12.65;70.82
9187;BME280;7273;48.902;9.410;2023-03-13T07:56:16;97202.16;;;12.64;71.53
9187;BME280;7273;48.902;9.410;2023-03-13T07:58:43;97199.63;;;12.67;71.41
9187;BME280;7273;48.902;9.410;2023-03-13T08:01:15;97200.63;;;12.71;71.66
9187;BME280;7273;48.902;9.410;2023-03-13T08:03:42;97193.91;;;12.69;73.68
9187;BME280;7273;48.902;9.410;2023-03-13T08:06:12;97188.16;;;12.70;70.92
9187;BME280;7273;48.902;9.410;2023-03-13T08:08:39;97177.81;;;12.72;71.29
9187;BME280;7273;48.902;9.410;2023-03-13T08:11:07;97186.94;;;12.76;72.44
9187;BME280;7273;48.902;9.410;2023-03-13T08:13:34;97189.03;;;12.79;71.41
9187;BME280;7273;48.902;9.410;2023-03-13T08:16:07;97182.16;;;12.82;71.87
9187;BME280;7273;48.902;9.410;2023-03-13T08:18:33;97183.66;;;12.88;70.85
9187;BME280;7273;48.902;9.410;2023-03-13T08:21:01;97162.88;;;12.92;70.77
9187;BME280;7273;48.902;9.410;2023-03-13T08:23:27;97161.66;;;12.98;70.61
9187;BME280;7273;48.902;9.410;2023-03-13T08:25:52;97146.03;;;13.03;70.69
9187;BME280;7273;48.902;9.410;2023-03-13T08:28:17;97150.38;;;13.13;70.64
9187;BME280;7273;48.902;9.410;2023-03-13T08:30:43;97153.13;;;13.21;70.45
9187;BME280;7273;48.902;9.410;2023-03-13T08:33:08;97147.22;;;13.28;70.55
9187;BME280;7273;48.902;9.410;2023-03-13T08:35:34;97154.94;;;13.43;70.04
9187;BME280;7273;48.902;9.410;2023-03-13T08:37:59;97150.63;;;13.50;70.39
9187;BME280;7273;48.902;9.410;2023-03-13T08:40:24;97159.13;;;13.58;69.98
9187;BME280;7273;48.902;9.410;2023-03-13T08:42:50;97160.41;;;13.69;70.25
9187;BME280;7273;48.902;9.410;2023-03-13T08:45:15;97164.44;;;13.80;70.00
9187;BME280;7273;48.902;9.410;2023-03-13T08:47:40;97157.72;;;13.86;69.63
9187;BME280;7273;48.902;9.410;2023-03-13T08:50:06;97172.41;;;13.93;69.75
9187;BME280;7273;48.902;9.410;2023-03-13T08:52:32;97156.75;;;14.07;69.32
9187;BME280;7273;48.902;9.410;2023-03-13T08:54:57;97166.66;;;14.20;69.03
9187;BME280;7273;48.902;9.410;2023-03-13T08:57:22;97164.09;;;14.15;69.45
9187;BME280;7273;48.902;9.410;2023-03-13T08:59:48;97164.88;;;14.16;69.24
9187;BME280;7273;48.902;9.410;2023-03-13T09:02:14;97156.72;;;14.16;69.39
9187;BME280;7273;48.902;9.410;2023-03-13T09:04:44;97157.84;;;14.15;69.22
9187;BME280;7273;48.902;9.410;2023-03-13T09:07:11;97154.50;;;14.18;69.36
9187;BME280;7273;48.902;9.410;2023-03-13T09:09:36;97157.03;;;14.14;69.62
9187;BME280;7273;48.902;9.410;2023-03-13T09:12:02;97146.16;;;14.14;69.30
9187;BME280;7273;48.902;9.410;2023-03-13T09:14:28;97146.16;;;14.14;69.26
9187;BME280;7273;48.902;9.410;2023-03-13T09:16:54;97151.28;;;14.16;69.34
9187;BME280;7273;48.902;9.410;2023-03-13T09:19:20;97146.66;;;14.16;69.50
9187;BME280;7273;48.902;9.410;2023-03-13T09:21:45;97155.63;;;14.17;69.32
9187;BME280;7273;48.902;9.410;2023-03-13T09:24:13;97140.91;;;14.18;69.54
9187;BME280;7273;48.902;9.410;2023-03-13T09:26:39;97147.13;;;14.18;69.12
9187;BME280;7273;48.902;9.410;2023-03-13T09:29:04;97142.19;;;14.20;69.17
9187;BME280;7273;48.902;9.410;2023-03-13T09:31:31;97142.81;;;14.26;69.03
9187;BME280;7273;48.902;9.410;2023-03-13T09:33:57;97136.13;;;14.32;68.83
9187;BME280;7273;48.902;9.410;2023-03-13T09:36:24;97136.28;;;14.35;69.02
9187;BME280;7273;48.902;9.410;2023-03-13T09:38:51;97138.19;;;14.43;68.56
9187;BME280;7273;48.902;9.410;2023-03-13T09:46:40;97152.22;;;14.54;68.12
9187;BME280;7273;48.902;9.410;2023-03-13T09:51:40;97155.44;;;14.56;68.18
9187;BME280;7273;48.902;9.410;2023-03-13T09:54:20;97153.19;;;14.58;68.26
9187;BME280;7273;48.902;9.410;2023-03-13T09:57:02;97141.50;;;14.57;68.03
9187;BME280;7273;48.902;9.410;2023-03-13T09:59:46;97151.88;;;14.64;67.86
9187;BME280;7273;48.902;9.410;2023-03-13T10:05:18;97127.25;;;14.98;67.40
9187;BME280;7273;48.902;9.410;2023-03-13T10:07:45;97127.31;;;15.19;66.51
9187;BME280;7273;48.902;9.410;2023-03-13T10:10:16;97128.53;;;15.30;66.85
9187;BME280;7273;48.902;9.410;2023-03-13T10:12:48;97125.81;;;15.30;65.98
9187;BME280;7273;48.902;9.410;2023-03-13T10:15:37;97117.53;;;15.47;65.83
9187;BME280;7273;48.902;9.410;2023-03-13T10:18:25;97116.19;;;15.61;66.18
9187;BME280;7273;48.902;9.410;2023-03-13T10:20:59;97109.72;;;15.66;65.88
9187;BME280;7273;48.902;9.410;2023-03-13T10:23:52;97104.00;;;15.59;64.69
9187;BME280;7273;48.902;9.410;2023-03-13T10:26:28;97105.19;;;15.70;66.08
9187;BME280;7273;48.902;9.410;2023-03-13T10:28:55;97101.59;;;15.98;65.70
9187;BME280;7273;48.902;9.410;2023-03-13T10:31:32;97096.78;;;16.16;63.84
9187;BME280;7273;48.902;9.410;2023-03-13T10:34:11;97095.47;;;16.55;65.35
9187;BME280;7273;48.902;9.410;2023-03-13T10:36:45;97087.72;;;16.69;64.78
9187;BME280;7273;48.902;9.410;2023-03-13T10:39:18;97078.78;;;16.92;63.74
9187;BME280;7273;48.902;9.410;2023-03-13T10:41:47;97075.09;;;17.12;63.14
9187;BME280;7273;48.902;9.410;2023-03-13T10:44:19;97079.41;;;17.25;64.38
9187;BME280;7273;48.902;9.410;2023-03-13T10:46:47;97073.72;;;17.30;64.57
9187;BME280;7273;48.902;9.410;2023-03-13T10:49:18;97060.06;;;17.30;62.88
9187;BME280;7273;48.902;9.410;2023-03-13T10:51:50;97061.66;;;17.56;63.56
9187;BME280;7273;48.902;9.410;2023-03-13T10:54:23;97055.59;;;17.50;63.08
9187;BME280;7273;48.902;9.410;2023-03-13T10:56:50;97055.63;;;17.38;63.46
9187;BME280;7273;48.902;9.410;2023-03-13T10:59:25;97054.13;;;17.28;63.56
9187;BME280;7273;48.902;9.410;2023-03-13T11:01:52;97058.03;;;17.27;64.02
9187;BME280;7273;48.902;9.410;2023-03-13T11:07:01;97047.53;;;17.29;63.03
9187;BME280;7273;48.902;9.410;2023-03-13T11:09:26;97047.44;;;17.26;63.24
9187;BME280;7273;48.902;9.410;2023-03-13T11:11:54;97038.31;;;17.46;63.71
9187;BME280;7273;48.902;9.410;2023-03-13T11:14:24;97048.13;;;18.02;62.97
9187;BME280;7273;48.902;9.410;2023-03-13T11:16:51;97053.38;;;18.50;61.10
9187;BME280;7273;48.902;9.410;2023-03-13T11:19:24;97041.66;;;18.65;59.44
9187;BME280;7273;48.902;9.410;2023-03-13T11:21:59;97036.06;;;18.46;62.40
9187;BME280;7273;48.902;9.410;2023-03-13T11:24:43;97041.00;;;18.56;62.69
9187;BME280;7273;48.902;9.410;2023-03-13T11:27:27;97024.13;;;18.39;61.92
9187;BME280;7273;48.902;9.410;2023-03-13T11:32:42;97009.66;;;19.35;57.93
9187;BME280;7273;48.902;9.410;2023-03-13T11:35:27;96998.13;;;19.64;54.04
9187;BME280;7273;48.902;9.410;2023-03-13T11:37:56;96999.72;;;19.65;61.14
9187;BME280;7273;48.902;9.410;2023-03-13T11:40:33;96993.19;;;19.92;60.86
9187;BME280;7273;48.902;9.410;2023-03-13T11:43:25;96993.41;;;20.45;54.77
9187;BME280;7273;48.902;9.410;2023-03-13T11:51:57;96973.50;;;20.29;59.39
9187;BME280;7273;48.902;9.410;2023-03-13T11:57:07;96962.34;;;19.57;61.91
9187;BME280;7273;48.902;9.410;2023-03-13T12:02:35;96946.63;;;18.85;58.03
9187;BME280;7273;48.902;9.410;2023-03-13T12:05:07;96942.22;;;18.81;60.87
9187;BME280;7273;48.902;9.410;2023-03-13T12:10:03;96927.84;;;18.68;54.00
9187;BME280;7273;48.902;9.410;2023-03-13T12:15:26;96909.75;;;18.48;60.34
9187;BME280;7273;48.902;9.410;2023-03-13T12:18:28;96904.63;;;18.46;60.79
9187;BME280;7273;48.902;9.410;2023-03-13T12:21:03;96905.88;;;18.49;60.97
9187;BME280;7273;48.902;9.410;2023-03-13T12:23:42;96896.84;;;18.64;61.72
9187;BME280;7273;48.902;9.410;2023-03-13T12:26:15;96891.88;;;18.69;61.38
9187;BME280;7273;48.902;9.410;2023-03-13T12:33:59;96864.53;;;19.08;61.77
9187;BME280;7273;48.902;9.410;2023-03-13T12:39:00;96841.13;;;19.14;61.46
9187;BME280;7273;48.902;9.410;2023-03-13T12:41:43;96850.72;;;19.23;58.99
9187;BME280;7273;48.902;9.410;2023-03-13T12:44:18;96829.47;;;19.36;60.34
9187;BME280;7273;48.902;9.410;2023-03-13T12:47:00;96818.41;;;19.51;59.71
9187;BME280;7273;48.902;9.410;2023-03-13T12:52:49;96808.28;;;19.78;58.94
9187;BME280;7273;48.902;9.410;2023-03-13T13:00:34;96773.47;;;20.31;59.47
9187;BME280;7273;48.902;9.410;2023-03-13T13:03:55;96761.59;;;20.53;55.85
9187;BME280;7273;48.902;9.410;2023-03-13T13:06:22;96755.19;;;20.71;59.45
9187;BME280;7273;48.902;9.410;2023-03-13T13:16:59;96735.72;;;20.87;56.94
9187;BME280;7273;48.902;9.410;2023-03-13T13:25:00;96701.56;;;20.84;58.81
9187;BME280;7273;48.902;9.410;2023-03-13T13:32:38;96684.25;;;20.84;58.71
9187;BME280;7273;48.902;9.410;2023-03-13T13:35:31;96673.69;;;20.86;55.16
9187;BME280;7273;48.902;9.410;2023-03-13T13:51:39;96637.31;;;20.63;58.55
9187;BME280;7273;48.902;9.410;2023-03-13T13:56:40;96639.72;;;20.68;57.83
9187;BME280;7273;48.902;9.410;2023-03-13T14:04:31;96619.31;;;20.65;56.95
9187;BME280;7273;48.902;9.410;2023-03-13T14:07:01;96613.47;;;20.70;57.06
9187;BME280;7273;48.902;9.410;2023-03-13T14:09:41;96606.00;;;20.71;54.56
9187;BME280;7273;48.902;9.410;2023-03-13T14:12:30;96610.72;;;20.70;53.34
9187;BME280;7273;48.902;9.410;2023-03-13T14:17:38;96599.28;;;20.65;56.75
9187;BME280;7273;48.902;9.410;2023-03-13T14:20:04;96599.63;;;20.60;57.10
9187;BME280;7273;48.902;9.410;2023-03-13T14:22:54;96577.94;;;20.51;54.24
9187;BME280;7273;48.902;9.410;2023-03-13T14:25:21;96583.00;;;20.49;57.30
9187;BME280;7273;48.902;9.410;2023-03-13T14:27:48;96580.66;;;20.48;57.58
9187;BME280;7273;48.902;9.410;2023-03-13T14:30:16;96572.41;;;20.48;57.98
9187;BME280;7273;48.902;9.410;2023-03-13T14:32:42;96569.22;;;20.42;57.24
9187;BME280;7273;48.902;9.410;2023-03-13T14:35:10;96562.94;;;20.42;57.24
9187;BME280;7273;48.902;9.410;2023-03-13T14:40:26;96539.06;;;20.49;55.00
9187;BME280;7273;48.902;9.410;2023-03-13T14:42:57;96532.88;;;20.59;57.07
9187;BME280;7273;48.902;9.410;2023-03-13T14:45:27;96532.56;;;20.68;56.62
9187;BME280;7273;48.902;9.410;2023-03-13T14:47:53;96526.81;;;20.80;56.34
9187;BME280;7273;48.902;9.410;2023-03-13T14:50:22;96525.31;;;20.89;55.96
9187;BME280;7273;48.902;9.410;2023-03-13T14:52:51;96509.72;;;21.00;56.21
9187;BME280;7273;48.902;9.410;2023-03-13T15:00:39;96491.38;;;21.18;51.94
9187;BME280;7273;48.902;9.410;2023-03-13T15:08:39;96466.38;;;21.38;54.90
9187;BME280;7273;48.902;9.410;2023-03-13T15:11:28;96457.28;;;21.30;52.15
9187;BME280;7273;48.902;9.410;2023-03-13T15:13:55;96454.97;;;21.39;54.43
9187;BME280;7273;48.902;9.410;2023-03-13T15:16:25;96442.38;;;21.31;54.93
9187;BME280;7273;48.902;9.410;2023-03-13T15:18:51;96430.63;;;21.38;55.30
9187;BME280;7273;48.902;9.410;2023-03-13T15:21:26;96419.59;;;21.34;55.03
9187;BME280;7273;48.902;9.410;2023-03-13T15:23:57;96420.34;;;21.34;55.43